Terminal Aerodrome Forecast
Issued by NWS

Home | Current Version | Previous Version | Text Only | Print | Product List | Glossary On
Versions: 1 2 3 4 5 6 7 8 9 10 11 12 13 14 15 16 17 18 19 20 21 22 23 24 25 26 27 28 29 30 31 32 33 34 35 36 37 38 39 40 41 42 43 44 45
062
FTUS42 KRAH 221133
TAFINT
TAF
KINT 221133Z 2212/2312 VRB03KT P6SM OVC005
      TEMPO 2212/2216 3SM SHRA OVC009
     FM221600 VRB06KT P6SM OVC005
     FM230000 08010KT P6SM VCTS OVC005CB PROB30 2301/2305 VRB20G35KT
      1SM +TSRA OVC010CB
     FM230800 20010KT P6SM BKN035=

USA.gov is the U.S. government's official web portal to all federal, state and local government web resources and services.